44.4°F
Current conditions from King Hill
Updated every 5 minutes
 
  Friday October 24, 2014

Station Historical Data
Daily Summary for April 17, 2012 Units:  Both    English   Metric
« Previous Day
Next Day »
Daily Weekly Monthly Yearly Custom
  High: Low: Average:
Temperature: 72.3 °F /  22.4 °C 40.5 °F /  4.7 °C 57 °F /  13.9 °C
Dew Point: 57.8 °F /  14.3 °C 24.8 °F /  -4 °C 37.6 °F /  3.1 °C
Humidity: 77% 31% 49%
Wind Speed: 15.0mph /  24.1km/h - 7.5mph /  12.1km/h
Wind Gust: 26.0mph /  41.8km/h - -
Wind- - WNW
Pressure: 30.21 in /  1022.9 hPa 29.75 in /  1007.3 hPa -
Precipitation: 0.02 in /  0.5 mm    
Historical Graphs
 
 
Tabular Data for April 17, 2012
Time Temperature Dew Point Pressure Wind Wind Speed Wind Gust Humidity Daily Rainfall
00:05 72.3 °F /  22.4 °C 56.7 °F /  13.7 °C 29.76in /  1007.7hPa West 5.0mph /  8km/h 14.0mph /  22.5km/h 58% 0.00in /  0mm
00:10 72.0 °F /  22.2 °C 56.4 °F /  13.6 °C 29.75in /  1007.3hPa West 4.0mph /  6.4km/h 13.0mph /  20.9km/h 58% 0.00in /  0mm
00:15 71.7 °F /  22.1 °C 56.6 °F /  13.7 °C 29.76in /  1007.7hPa West 7.0mph /  11.3km/h 13.0mph /  20.9km/h 59% 0.00in /  0mm
00:20 71.3 °F /  21.8 °C 56.7 °F /  13.7 °C 29.77in /  1008hPa West 8.0mph /  12.9km/h 16.0mph /  25.7km/h 60% 0.00in /  0mm
00:25 71.1 °F /  21.7 °C 57.4 °F /  14.1 °C 29.78in /  1008.4hPa West 10.0mph /  16.1km/h 16.0mph /  25.7km/h 62% 0.00in /  0mm
00:30 70.7 °F /  21.5 °C 57.5 °F /  14.2 °C 29.78in /  1008.4hPa West 7.0mph /  11.3km/h 15.0mph /  24.1km/h 63% 0.00in /  0mm
00:35 70.1 °F /  21.2 °C 57.8 °F /  14.3 °C 29.78in /  1008.4hPa West 8.0mph /  12.9km/h 15.0mph /  24.1km/h 65% 0.00in /  0mm
00:40 69.5 °F /  20.8 °C 56.4 °F /  13.6 °C 29.77in /  1008hPa West 10.0mph /  16.1km/h 19.0mph /  30.6km/h 63% 0.00in /  0mm
00:49 68.7 °F /  20.4 °C 55.6 °F /  13.1 °C 29.78in /  1008.4hPa West 12.0mph /  19.3km/h 19.0mph /  30.6km/h 63% 0.00in /  0mm
00:55 68.2 °F /  20.1 °C 56.4 °F /  13.6 °C 29.78in /  1008.4hPa West 10.0mph /  16.1km/h 19.0mph /  30.6km/h 66% 0.00in /  0mm
01:00 66.9 °F /  19.4 °C 56.4 °F /  13.6 °C 29.79in /  1008.7hPa West 10.0mph /  16.1km/h 17.0mph /  27.4km/h 69% 0.00in /  0mm
01:05 65.5 °F /  18.6 °C 56.6 °F /  13.7 °C 29.80in /  1009hPa West 12.0mph /  19.3km/h 22.0mph /  35.4km/h 73% 0.00in /  0mm
01:10 64.5 °F /  18.1 °C 56.8 °F /  13.8 °C 29.80in /  1009hPa West 8.0mph /  12.9km/h 22.0mph /  35.4km/h 76% 0.01in /  0.3mm
01:14 63.9 °F /  17.7 °C 56.6 °F /  13.7 °C 29.80in /  1009hPa West 8.0mph /  12.9km/h 16.0mph /  25.7km/h 77% 0.02in /  0.5mm
01:20 63.4 °F /  17.4 °C 56.1 °F /  13.4 °C 29.79in /  1008.7hPa West 5.0mph /  8km/h 14.0mph /  22.5km/h 77% 0.02in /  0.5mm
01:25 63.2 °F /  17.3 °C 55.9 °F /  13.3 °C 29.79in /  1008.7hPa West 4.0mph /  6.4km/h 11.0mph /  17.7km/h 77% 0.02in /  0.5mm
01:35 63.8 °F /  17.7 °C 55.4 °F /  13 °C 29.80in /  1009hPa West 7.0mph /  11.3km/h 15.0mph /  24.1km/h 74% 0.02in /  0.5mm
01:40 64.0 °F /  17.8 °C 55.2 °F /  12.9 °C 29.80in /  1009hPa West 5.0mph /  8km/h 15.0mph /  24.1km/h 73% 0.02in /  0.5mm
01:45 64.0 °F /  17.8 °C 55.2 °F /  12.9 °C 29.81in /  1009.4hPa West 5.0mph /  8km/h 12.0mph /  19.3km/h 73% 0.02in /  0.5mm
01:50 64.1 °F /  17.8 °C 54.9 °F /  12.7 °C 29.81in /  1009.4hPa West 5.0mph /  8km/h 11.0mph /  17.7km/h 72% 0.02in /  0.5mm
02:00 64.2 °F /  17.9 °C 54.6 °F /  12.6 °C 29.81in /  1009.4hPa WSW 4.0mph /  6.4km/h 13.0mph /  20.9km/h 71% 0.02in /  0.5mm
02:05 64.3 °F /  17.9 °C 54.3 °F /  12.4 °C 29.80in /  1009hPa WSW 7.0mph /  11.3km/h 11.0mph /  17.7km/h 70% 0.02in /  0.5mm
02:10 64.8 °F /  18.2 °C 53.6 °F /  12 °C 29.80in /  1009hPa WSW 4.0mph /  6.4km/h 13.0mph /  20.9km/h 67% 0.02in /  0.5mm
02:14 65.0 °F /  18.3 °C 53.4 °F /  11.9 °C 29.81in /  1009.4hPa WSW 9.0mph /  14.5km/h 16.0mph /  25.7km/h 66% 0.02in /  0.5mm
02:20 65.0 °F /  18.3 °C 53.4 °F /  11.9 °C 29.81in /  1009.4hPa WSW 9.0mph /  14.5km/h 18.0mph /  29km/h 66% 0.02in /  0.5mm
02:25 64.9 °F /  18.3 °C 52.9 °F /  11.6 °C 29.81in /  1009.4hPa West 8.0mph /  12.9km/h 18.0mph /  29km/h 65% 0.02in /  0.5mm
02:30 64.6 °F /  18.1 °C 53.0 °F /  11.7 °C 29.81in /  1009.4hPa WSW 4.0mph /  6.4km/h 16.0mph /  25.7km/h 66% 0.02in /  0.5mm
02:34 64.3 °F /  17.9 °C 53.1 °F /  11.7 °C 29.82in /  1009.7hPa WSW 6.0mph /  9.7km/h 15.0mph /  24.1km/h 67% 0.02in /  0.5mm
02:40 64.3 °F /  17.9 °C 52.3 °F /  11.3 °C 29.82in /  1009.7hPa WSW 11.0mph /  17.7km/h 19.0mph /  30.6km/h 65% 0.02in /  0.5mm
02:45 64.0 °F /  17.8 °C 50.7 °F /  10.4 °C 29.82in /  1009.7hPa West 12.0mph /  19.3km/h 20.0mph /  32.2km/h 62% 0.02in /  0.5mm
02:49 63.6 °F /  17.6 °C 49.9 °F /  9.9 °C 29.83in /  1010hPa WSW 12.0mph /  19.3km/h 26.0mph /  41.8km/h 61% 0.02in /  0.5mm
02:55 63.1 °F /  17.3 °C 49.4 °F /  9.7 °C 29.83in /  1010hPa WSW 9.0mph /  14.5km/h 26.0mph /  41.8km/h 61% 0.02in /  0.5mm
02:59 62.9 °F /  17.2 °C 48.8 °F /  9.3 °C 29.83in /  1010hPa West 13.0mph /  20.9km/h 23.0mph /  37km/h 60% 0.02in /  0.5mm
03:05 62.7 °F /  17.1 °C 49.1 °F /  9.5 °C 29.84in /  1010.4hPa WSW 9.0mph /  14.5km/h 22.0mph /  35.4km/h 61% 0.02in /  0.5mm
03:09 62.5 °F /  16.9 °C 48.4 °F /  9.1 °C 29.84in /  1010.4hPa West 9.0mph /  14.5km/h 18.0mph /  29km/h 60% 0.02in /  0.5mm
03:15 62.3 °F /  16.8 °C 48.7 °F /  9.3 °C 29.85in /  1010.7hPa West 9.0mph /  14.5km/h 19.0mph /  30.6km/h 61% 0.02in /  0.5mm
03:20 62.0 °F /  16.7 °C 48.4 °F /  9.1 °C 29.85in /  1010.7hPa West 12.0mph /  19.3km/h 22.0mph /  35.4km/h 61% 0.02in /  0.5mm
03:25 61.7 °F /  16.5 °C 47.2 °F /  8.4 °C 29.86in /  1011.1hPa West 9.0mph /  14.5km/h 22.0mph /  35.4km/h 59% 0.02in /  0.5mm
03:30 61.4 °F /  16.3 °C 47.4 °F /  8.6 °C 29.86in /  1011.1hPa West 8.0mph /  12.9km/h 21.0mph /  33.8km/h 60% 0.02in /  0.5mm
03:40 60.8 °F /  16 °C 47.3 °F /  8.5 °C 29.87in /  1011.4hPa West 7.0mph /  11.3km/h 18.0mph /  29km/h 61% 0.02in /  0.5mm
03:45 60.8 °F /  16 °C 47.3 °F /  8.5 °C 29.87in /  1011.4hPa WSW 7.0mph /  11.3km/h 15.0mph /  24.1km/h 61% 0.02in /  0.5mm
03:49 60.7 °F /  15.9 °C 46.7 °F /  8.2 °C 29.86in /  1011.1hPa WSW 7.0mph /  11.3km/h 15.0mph /  24.1km/h 60% 0.02in /  0.5mm
03:55 60.8 °F /  16 °C 46.4 °F /  8 °C 29.87in /  1011.4hPa West 10.0mph /  16.1km/h 23.0mph /  37km/h 59% 0.02in /  0.5mm
03:59 60.6 °F /  15.9 °C 46.2 °F /  7.9 °C 29.87in /  1011.4hPa WSW 9.0mph /  14.5km/h 23.0mph /  37km/h 59% 0.02in /  0.5mm
04:05 60.4 °F /  15.8 °C 45.6 °F /  7.6 °C 29.87in /  1011.4hPa WSW 9.0mph /  14.5km/h 22.0mph /  35.4km/h 58% 0.02in /  0.5mm
04:09 60.0 °F /  15.6 °C 45.2 °F /  7.3 °C 29.87in /  1011.4hPa WSW 10.0mph /  16.1km/h 22.0mph /  35.4km/h 58% 0.02in /  0.5mm
04:15 59.9 °F /  15.5 °C 45.1 °F /  7.3 °C 29.87in /  1011.4hPa WSW 9.0mph /  14.5km/h 19.0mph /  30.6km/h 58% 0.02in /  0.5mm
04:20 59.5 °F /  15.3 °C 44.7 °F /  7.1 °C 29.87in /  1011.4hPa WSW 8.0mph /  12.9km/h 17.0mph /  27.4km/h 58% 0.02in /  0.5mm
04:25 59.2 °F /  15.1 °C 44.0 °F /  6.7 °C 29.87in /  1011.4hPa WSW 8.0mph /  12.9km/h 15.0mph /  24.1km/h 57% 0.02in /  0.5mm
04:35 59.0 °F /  15 °C 43.3 °F /  6.3 °C 29.88in /  1011.7hPa West 6.0mph /  9.7km/h 15.0mph /  24.1km/h 56% 0.02in /  0.5mm
04:40 58.6 °F /  14.8 °C 43.0 °F /  6.1 °C 29.88in /  1011.7hPa West 5.0mph /  8km/h 18.0mph /  29km/h 56% 0.02in /  0.5mm
04:45 58.2 °F /  14.6 °C 42.6 °F /  5.9 °C 29.88in /  1011.7hPa West 5.0mph /  8km/h 18.0mph /  29km/h 56% 0.02in /  0.5mm
04:49 57.9 °F /  14.4 °C 42.3 °F /  5.7 °C 29.89in /  1012.1hPa WSW 3.0mph /  4.8km/h 9.0mph /  14.5km/h 56% 0.02in /  0.5mm
04:54 57.7 °F /  14.3 °C 41.7 °F /  5.4 °C 29.89in /  1012.1hPa WSW 12.0mph /  19.3km/h 25.0mph /  40.2km/h 55% 0.02in /  0.5mm
04:59 57.8 °F /  14.3 °C 41.3 °F /  5.2 °C 29.89in /  1012.1hPa WSW 10.0mph /  16.1km/h 25.0mph /  40.2km/h 54% 0.02in /  0.5mm
05:05 57.7 °F /  14.3 °C 41.2 °F /  5.1 °C 29.90in /  1012.4hPa WSW 12.0mph /  19.3km/h 18.0mph /  29km/h 54% 0.02in /  0.5mm
05:09 57.4 °F /  14.1 °C 40.9 °F /  4.9 °C 29.90in /  1012.4hPa West 10.0mph /  16.1km/h 21.0mph /  33.8km/h 54% 0.02in /  0.5mm
05:14 57.0 °F /  13.9 °C 41.0 °F /  5 °C 29.90in /  1012.4hPa West 9.0mph /  14.5km/h 22.0mph /  35.4km/h 55% 0.02in /  0.5mm
05:20 56.6 °F /  13.7 °C 41.1 °F /  5.1 °C 29.91in /  1012.8hPa WSW 7.0mph /  11.3km/h 22.0mph /  35.4km/h 56% 0.02in /  0.5mm
05:25 56.1 °F /  13.4 °C 40.6 °F /  4.8 °C 29.92in /  1013.1hPa West 15.0mph /  24.1km/h 22.0mph /  35.4km/h 56% 0.02in /  0.5mm
05:35 55.5 °F /  13.1 °C 40.5 °F /  4.7 °C 29.92in /  1013.1hPa West 8.0mph /  12.9km/h 19.0mph /  30.6km/h 57% 0.02in /  0.5mm
05:45 54.7 °F /  12.6 °C 40.7 °F /  4.8 °C 29.93in /  1013.4hPa West 7.0mph /  11.3km/h 16.0mph /  25.7km/h 59% 0.02in /  0.5mm
05:55 54.2 °F /  12.3 °C 40.6 °F /  4.8 °C 29.93in /  1013.4hPa West 10.0mph /  16.1km/h 16.0mph /  25.7km/h 60% 0.02in /  0.5mm
06:00 54.2 °F /  12.3 °C 40.2 °F /  4.6 °C 29.93in /  1013.4hPa WSW 12.0mph /  19.3km/h 20.0mph /  32.2km/h 59% 0.02in /  0.5mm
06:04 54.2 °F /  12.3 °C 40.2 °F /  4.6 °C 29.93in /  1013.4hPa WSW 7.0mph /  11.3km/h 21.0mph /  33.8km/h 59% 0.02in /  0.5mm
06:10 54.1 °F /  12.3 °C 40.1 °F /  4.5 °C 29.94in /  1013.8hPa West 8.0mph /  12.9km/h 21.0mph /  33.8km/h 59% 0.02in /  0.5mm
06:19 53.8 °F /  12.1 °C 38.9 °F /  3.8 °C 29.96in /  1014.4hPa WSW 11.0mph /  17.7km/h 22.0mph /  35.4km/h 57% 0.02in /  0.5mm
06:24 53.7 °F /  12.1 °C 38.4 °F /  3.6 °C 29.96in /  1014.4hPa WSW 13.0mph /  20.9km/h 22.0mph /  35.4km/h 56% 0.02in /  0.5mm
06:30 53.5 °F /  11.9 °C 38.7 °F /  3.7 °C 29.97in /  1014.8hPa WNW 7.0mph /  11.3km/h 21.0mph /  33.8km/h 57% 0.02in /  0.5mm
06:35 53.1 °F /  11.7 °C 38.3 °F /  3.5 °C 29.97in /  1014.8hPa WSW 8.0mph /  12.9km/h 19.0mph /  30.6km/h 57% 0.02in /  0.5mm
06:39 53.0 °F /  11.7 °C 37.7 °F /  3.2 °C 29.97in /  1014.8hPa West 8.0mph /  12.9km/h 14.0mph /  22.5km/h 56% 0.02in /  0.5mm
06:45 52.8 °F /  11.6 °C 38.0 °F /  3.3 °C 29.98in /  1015.1hPa West 5.0mph /  8km/h 14.0mph /  22.5km/h 57% 0.02in /  0.5mm
06:55 52.1 °F /  11.2 °C 37.8 °F /  3.2 °C 29.98in /  1015.1hPa WSW 3.0mph /  4.8km/h 8.0mph /  12.9km/h 58% 0.02in /  0.5mm
06:59 52.1 °F /  11.2 °C 37.8 °F /  3.2 °C 29.98in /  1015.1hPa West 6.0mph /  9.7km/h 10.0mph /  16.1km/h 58% 0.02in /  0.5mm
07:04 52.2 °F /  11.2 °C 37.9 °F /  3.3 °C 29.98in /  1015.1hPa WSW 3.0mph /  4.8km/h 13.0mph /  20.9km/h 58% 0.02in /  0.5mm
07:09 52.2 °F /  11.2 °C 38.3 °F /  3.5 °C 29.99in /  1015.5hPa Calm   13.0mph /  20.9km/h 59% 0.02in /  0.5mm
07:14 52.3 °F /  11.3 °C 37.5 °F /  3.1 °C 29.99in /  1015.5hPa WSW 4.0mph /  6.4km/h 7.0mph /  11.3km/h 57% 0.02in /  0.5mm
07:19 52.4 °F /  11.3 °C 37.6 °F /  3.1 °C 29.99in /  1015.5hPa WSW 1.0mph /  1.6km/h 15.0mph /  24.1km/h 57% 0.02in /  0.5mm
07:25 52.4 °F /  11.3 °C 36.7 °F /  2.6 °C 30.00in /  1015.8hPa West 8.0mph /  12.9km/h 16.0mph /  25.7km/h 55% 0.02in /  0.5mm
07:30 52.3 °F /  11.3 °C 37.1 °F /  2.8 °C 30.00in /  1015.8hPa West 4.0mph /  6.4km/h 16.0mph /  25.7km/h 56% 0.02in /  0.5mm
07:34 52.4 °F /  11.3 °C 37.2 °F /  2.9 °C 30.00in /  1015.8hPa WNW 1.0mph /  1.6km/h 16.0mph /  25.7km/h 56% 0.02in /  0.5mm
07:40 53.0 °F /  11.7 °C 37.3 °F /  2.9 °C 30.00in /  1015.8hPa WNW 6.0mph /  9.7km/h 16.0mph /  25.7km/h 55% 0.02in /  0.5mm
07:44 53.4 °F /  11.9 °C 36.7 °F /  2.6 °C 30.01in /  1016.1hPa WNW 8.0mph /  12.9km/h 16.0mph /  25.7km/h 53% 0.02in /  0.5mm
07:50 53.7 °F /  12.1 °C 36.5 °F /  2.5 °C 30.01in /  1016.1hPa West 5.0mph /  8km/h 13.0mph /  20.9km/h 52% 0.02in /  0.5mm
07:54 53.9 °F /  12.2 °C 37.2 °F /  2.9 °C 30.01in /  1016.1hPa West 8.0mph /  12.9km/h 13.0mph /  20.9km/h 53% 0.02in /  0.5mm
07:59 54.2 °F /  12.3 °C 37.0 °F /  2.8 °C 30.01in /  1016.1hPa WSW 7.0mph /  11.3km/h 14.0mph /  22.5km/h 52% 0.02in /  0.5mm
08:04 54.1 °F /  12.3 °C 36.9 °F /  2.7 °C 30.01in /  1016.1hPa WNW 9.0mph /  14.5km/h 15.0mph /  24.1km/h 52% 0.02in /  0.5mm
08:09 54.2 °F /  12.3 °C 37.0 °F /  2.8 °C 30.02in /  1016.5hPa WSW 8.0mph /  12.9km/h 15.0mph /  24.1km/h 52% 0.02in /  0.5mm
08:15 54.2 °F /  12.3 °C 36.5 °F /  2.5 °C 30.02in /  1016.5hPa WSW 7.0mph /  11.3km/h 15.0mph /  24.1km/h 51% 0.02in /  0.5mm
08:19 54.1 °F /  12.3 °C 36.4 °F /  2.4 °C 30.02in /  1016.5hPa WSW 12.0mph /  19.3km/h 22.0mph /  35.4km/h 51% 0.02in /  0.5mm
08:25 53.9 °F /  12.2 °C 36.7 °F /  2.6 °C 30.02in /  1016.5hPa West 9.0mph /  14.5km/h 22.0mph /  35.4km/h 52% 0.02in /  0.5mm
08:29 54.1 °F /  12.3 °C 36.9 °F /  2.7 °C 30.02in /  1016.5hPa West 7.0mph /  11.3km/h 16.0mph /  25.7km/h 52% 0.02in /  0.5mm
08:35 54.1 °F /  12.3 °C 35.9 °F /  2.2 °C 30.02in /  1016.5hPa West 10.0mph /  16.1km/h 18.0mph /  29km/h 50% 0.02in /  0.5mm
08:39 54.2 °F /  12.3 °C 36.5 °F /  2.5 °C 30.02in /  1016.5hPa West 9.0mph /  14.5km/h 18.0mph /  29km/h 51% 0.02in /  0.5mm
08:45 54.5 °F /  12.5 °C 35.7 °F /  2.1 °C 30.02in /  1016.5hPa WNW 10.0mph /  16.1km/h 17.0mph /  27.4km/h 49% 0.02in /  0.5mm
08:50 54.4 °F /  12.4 °C 35.6 °F /  2 °C 30.02in /  1016.5hPa WNW 13.0mph /  20.9km/h 22.0mph /  35.4km/h 49% 0.02in /  0.5mm
08:54 54.4 °F /  12.4 °C 35.6 °F /  2 °C 30.02in /  1016.5hPa WNW 13.0mph /  20.9km/h 22.0mph /  35.4km/h 49% 0.02in /  0.5mm
08:59 54.2 °F /  12.3 °C 34.9 °F /  1.6 °C 30.02in /  1016.5hPa West 14.0mph /  22.5km/h 21.0mph /  33.8km/h 48% 0.02in /  0.5mm
09:04 54.1 °F /  12.3 °C 35.4 °F /  1.9 °C 30.03in /  1016.8hPa West 12.0mph /  19.3km/h 20.0mph /  32.2km/h 49% 0.02in /  0.5mm
09:10 53.9 °F /  12.2 °C 35.7 °F /  2.1 °C 30.03in /  1016.8hPa WNW 11.0mph /  17.7km/h 20.0mph /  32.2km/h 50% 0.02in /  0.5mm
09:14 53.9 °F /  12.2 °C 36.2 °F /  2.3 °C 30.03in /  1016.8hPa West 8.0mph /  12.9km/h 19.0mph /  30.6km/h 51% 0.02in /  0.5mm
09:19 53.8 °F /  12.1 °C 35.6 °F /  2 °C 30.04in /  1017.2hPa West 10.0mph /  16.1km/h 18.0mph /  29km/h 50% 0.02in /  0.5mm
09:24 53.5 °F /  11.9 °C 35.8 °F /  2.1 °C 30.03in /  1016.8hPa West 9.0mph /  14.5km/h 19.0mph /  30.6km/h 51% 0.02in /  0.5mm
09:29 53.9 °F /  12.2 °C 35.7 °F /  2.1 °C 30.04in /  1017.2hPa West 5.0mph /  8km/h 19.0mph /  30.6km/h 50% 0.02in /  0.5mm
09:34 54.7 °F /  12.6 °C 36.4 °F /  2.4 °C 30.04in /  1017.2hPa West 4.0mph /  6.4km/h 15.0mph /  24.1km/h 50% 0.02in /  0.5mm
09:40 55.2 °F /  12.9 °C 36.4 °F /  2.4 °C 30.04in /  1017.2hPa WNW 4.0mph /  6.4km/h 12.0mph /  19.3km/h 49% 0.02in /  0.5mm
09:45 55.5 °F /  13.1 °C 36.1 °F /  2.3 °C 30.05in /  1017.5hPa WNW 6.0mph /  9.7km/h 11.0mph /  17.7km/h 48% 0.02in /  0.5mm
09:55 56.2 °F /  13.4 °C 37.3 °F /  2.9 °C 30.05in /  1017.5hPa West 6.0mph /  9.7km/h 17.0mph /  27.4km/h 49% 0.02in /  0.5mm
09:59 56.3 °F /  13.5 °C 35.2 °F /  1.8 °C 30.05in /  1017.5hPa West 10.0mph /  16.1km/h 17.0mph /  27.4km/h 45% 0.02in /  0.5mm
10:04 55.8 °F /  13.2 °C 35.3 °F /  1.8 °C 30.05in /  1017.5hPa WNW 12.0mph /  19.3km/h 19.0mph /  30.6km/h 46% 0.02in /  0.5mm
10:09 55.5 °F /  13.1 °C 36.1 °F /  2.3 °C 30.04in /  1017.2hPa WNW 9.0mph /  14.5km/h 20.0mph /  32.2km/h 48% 0.02in /  0.5mm
10:15 56.4 °F /  13.6 °C 35.3 °F /  1.8 °C 30.04in /  1017.2hPa West 9.0mph /  14.5km/h 20.0mph /  32.2km/h 45% 0.02in /  0.5mm
10:20 57.1 °F /  13.9 °C 36.0 °F /  2.2 °C 30.04in /  1017.2hPa WNW 8.0mph /  12.9km/h 17.0mph /  27.4km/h 45% 0.02in /  0.5mm
10:25 57.4 °F /  14.1 °C 37.3 °F /  2.9 °C 30.04in /  1017.2hPa West 5.0mph /  8km/h 14.0mph /  22.5km/h 47% 0.02in /  0.5mm
10:29 57.5 °F /  14.2 °C 36.3 °F /  2.4 °C 30.04in /  1017.2hPa WNW 7.0mph /  11.3km/h 14.0mph /  22.5km/h 45% 0.02in /  0.5mm
10:35 57.9 °F /  14.4 °C 36.7 °F /  2.6 °C 30.04in /  1017.2hPa WNW 6.0mph /  9.7km/h 13.0mph /  20.9km/h 45% 0.02in /  0.5mm
10:40 57.8 °F /  14.3 °C 36.0 °F /  2.2 °C 30.04in /  1017.2hPa WNW 8.0mph /  12.9km/h 15.0mph /  24.1km/h 44% 0.02in /  0.5mm
10:45 57.7 °F /  14.3 °C 35.4 °F /  1.9 °C 30.04in /  1017.2hPa WNW 11.0mph /  17.7km/h 18.0mph /  29km/h 43% 0.02in /  0.5mm
10:50 58.5 °F /  14.7 °C 36.1 °F /  2.3 °C 30.04in /  1017.2hPa WNW 8.0mph /  12.9km/h 18.0mph /  29km/h 43% 0.02in /  0.5mm
10:59 57.9 °F /  14.4 °C 35.5 °F /  1.9 °C 30.05in /  1017.5hPa West 10.0mph /  16.1km/h 21.0mph /  33.8km/h 43% 0.02in /  0.5mm
11:04 58.2 °F /  14.6 °C 35.2 °F /  1.8 °C 30.05in /  1017.5hPa WNW 11.0mph /  17.7km/h 17.0mph /  27.4km/h 42% 0.02in /  0.5mm
11:09 58.0 °F /  14.4 °C 35.0 °F /  1.7 °C 30.04in /  1017.2hPa WNW 9.0mph /  14.5km/h 18.0mph /  29km/h 42% 0.02in /  0.5mm
11:14 58.1 °F /  14.5 °C 35.1 °F /  1.7 °C 30.04in /  1017.2hPa WNW 9.0mph /  14.5km/h 18.0mph /  29km/h 42% 0.02in /  0.5mm
11:19 58.1 °F /  14.5 °C 35.1 °F /  1.7 °C 30.04in /  1017.2hPa WNW 12.0mph /  19.3km/h 19.0mph /  30.6km/h 42% 0.02in /  0.5mm
11:25 58.7 °F /  14.8 °C 34.5 °F /  1.4 °C 30.04in /  1017.2hPa NW 12.0mph /  19.3km/h 19.0mph /  30.6km/h 40% 0.02in /  0.5mm
11:29 58.7 °F /  14.8 °C 34.5 °F /  1.4 °C 30.03in /  1016.8hPa West 10.0mph /  16.1km/h 18.0mph /  29km/h 40% 0.02in /  0.5mm
11:34 59.0 °F /  15 °C 34.7 °F /  1.5 °C 30.03in /  1016.8hPa WNW 11.0mph /  17.7km/h 23.0mph /  37km/h 40% 0.02in /  0.5mm
11:39 59.2 °F /  15.1 °C 35.5 °F /  1.9 °C 30.03in /  1016.8hPa West 10.0mph /  16.1km/h 23.0mph /  37km/h 41% 0.02in /  0.5mm
11:45 59.7 °F /  15.4 °C 36.0 °F /  2.2 °C 30.03in /  1016.8hPa WNW 12.0mph /  19.3km/h 19.0mph /  30.6km/h 41% 0.02in /  0.5mm
11:50 59.9 °F /  15.5 °C 34.9 °F /  1.6 °C 30.03in /  1016.8hPa West 10.0mph /  16.1km/h 18.0mph /  29km/h 39% 0.02in /  0.5mm
11:59 60.6 °F /  15.9 °C 34.9 °F /  1.6 °C 30.03in /  1016.8hPa West 10.0mph /  16.1km/h 17.0mph /  27.4km/h 38% 0.02in /  0.5mm
12:04 60.8 °F /  16 °C 35.0 °F /  1.7 °C 30.03in /  1016.8hPa West 8.0mph /  12.9km/h 17.0mph /  27.4km/h 38% 0.02in /  0.5mm
12:09 60.0 °F /  15.6 °C 35.0 °F /  1.7 °C 30.02in /  1016.5hPa WNW 10.0mph /  16.1km/h 17.0mph /  27.4km/h 39% 0.02in /  0.5mm
12:14 60.3 °F /  15.7 °C 35.3 °F /  1.8 °C 30.03in /  1016.8hPa WNW 10.0mph /  16.1km/h 17.0mph /  27.4km/h 39% 0.02in /  0.5mm
12:19 60.6 °F /  15.9 °C 34.9 °F /  1.6 °C 30.03in /  1016.8hPa West 10.0mph /  16.1km/h 16.0mph /  25.7km/h 38% 0.02in /  0.5mm
12:24 61.7 °F /  16.5 °C 34.5 °F /  1.4 °C 30.02in /  1016.5hPa NW 7.0mph /  11.3km/h 16.0mph /  25.7km/h 36% 0.02in /  0.5mm
12:29 62.7 °F /  17.1 °C 36.1 °F /  2.3 °C 30.03in /  1016.8hPa West 6.0mph /  9.7km/h 17.0mph /  27.4km/h 37% 0.02in /  0.5mm
12:34 62.3 °F /  16.8 °C 34.3 °F /  1.3 °C 30.03in /  1016.8hPa WNW 8.0mph /  12.9km/h 17.0mph /  27.4km/h 35% 0.02in /  0.5mm
12:40 61.3 °F /  16.3 °C 34.1 °F /  1.2 °C 30.03in /  1016.8hPa WSW 8.0mph /  12.9km/h 15.0mph /  24.1km/h 36% 0.02in /  0.5mm
12:44 61.9 °F /  16.6 °C 36.0 °F /  2.2 °C 30.02in /  1016.5hPa West 7.0mph /  11.3km/h 14.0mph /  22.5km/h 38% 0.02in /  0.5mm
12:50 62.5 °F /  16.9 °C 35.2 °F /  1.8 °C 30.02in /  1016.5hPa WNW 8.0mph /  12.9km/h 18.0mph /  29km/h 36% 0.02in /  0.5mm
12:54 62.3 °F /  16.8 °C 33.6 °F /  0.9 °C 30.02in /  1016.5hPa WNW 9.0mph /  14.5km/h 18.0mph /  29km/h 34% 0.02in /  0.5mm
12:59 61.6 °F /  16.4 °C 35.1 °F /  1.7 °C 30.02in /  1016.5hPa WNW 7.0mph /  11.3km/h 18.0mph /  29km/h 37% 0.02in /  0.5mm
13:04 61.6 °F /  16.4 °C 35.1 °F /  1.7 °C 30.02in /  1016.5hPa WNW 7.0mph /  11.3km/h 16.0mph /  25.7km/h 37% 0.02in /  0.5mm
13:09 62.4 °F /  16.9 °C 35.8 °F /  2.1 °C 30.02in /  1016.5hPa West 5.0mph /  8km/h 16.0mph /  25.7km/h 37% 0.02in /  0.5mm
13:15 62.7 °F /  17.1 °C 35.4 °F /  1.9 °C 30.03in /  1016.8hPa WNW 8.0mph /  12.9km/h 18.0mph /  29km/h 36% 0.02in /  0.5mm
13:19 62.8 °F /  17.1 °C 34.8 °F /  1.6 °C 30.02in /  1016.5hPa WNW 8.0mph /  12.9km/h 18.0mph /  29km/h 35% 0.02in /  0.5mm
13:24 63.0 °F /  17.2 °C 34.9 °F /  1.6 °C 30.02in /  1016.5hPa WSW 7.0mph /  11.3km/h 14.0mph /  22.5km/h 35% 0.02in /  0.5mm
13:30 63.1 °F /  17.3 °C 34.3 °F /  1.3 °C 30.02in /  1016.5hPa WSW 9.0mph /  14.5km/h 17.0mph /  27.4km/h 34% 0.02in /  0.5mm
13:34 62.8 °F /  17.1 °C 34.0 °F /  1.1 °C 30.03in /  1016.8hPa West 11.0mph /  17.7km/h 20.0mph /  32.2km/h 34% 0.02in /  0.5mm
13:40 62.6 °F /  17 °C 33.9 °F /  1.1 °C 30.03in /  1016.8hPa West 8.0mph /  12.9km/h 20.0mph /  32.2km/h 34% 0.02in /  0.5mm
13:44 62.3 °F /  16.8 °C 34.3 °F /  1.3 °C 30.02in /  1016.5hPa WNW 9.0mph /  14.5km/h 18.0mph /  29km/h 35% 0.02in /  0.5mm
13:49 62.2 °F /  16.8 °C 34.9 °F /  1.6 °C 30.02in /  1016.5hPa NW 7.0mph /  11.3km/h 18.0mph /  29km/h 36% 0.02in /  0.5mm
13:54 62.6 °F /  17 °C 34.6 °F /  1.4 °C 30.02in /  1016.5hPa WNW 12.0mph /  19.3km/h 17.0mph /  27.4km/h 35% 0.02in /  0.5mm
13:59 61.8 °F /  16.6 °C 34.6 °F /  1.4 °C 30.03in /  1016.8hPa WNW 9.0mph /  14.5km/h 17.0mph /  27.4km/h 36% 0.02in /  0.5mm
14:04 62.0 °F /  16.7 °C 35.4 °F /  1.9 °C 30.03in /  1016.8hPa West 8.0mph /  12.9km/h 17.0mph /  27.4km/h 37% 0.02in /  0.5mm
14:10 62.6 °F /  17 °C 34.6 °F /  1.4 °C 30.03in /  1016.8hPa West 10.0mph /  16.1km/h 17.0mph /  27.4km/h 35% 0.02in /  0.5mm
14:14 62.2 °F /  16.8 °C 34.2 °F /  1.2 °C 30.02in /  1016.5hPa WNW 10.0mph /  16.1km/h 19.0mph /  30.6km/h 35% 0.02in /  0.5mm
14:19 62.9 °F /  17.2 °C 34.1 °F /  1.2 °C 30.03in /  1016.8hPa NW 11.0mph /  17.7km/h 19.0mph /  30.6km/h 34% 0.02in /  0.5mm
14:24 63.1 °F /  17.3 °C 33.5 °F /  0.8 °C 30.03in /  1016.8hPa West 10.0mph /  16.1km/h 21.0mph /  33.8km/h 33% 0.02in /  0.5mm
14:29 63.5 °F /  17.5 °C 34.6 °F /  1.4 °C 30.03in /  1016.8hPa WNW 12.0mph /  19.3km/h 21.0mph /  33.8km/h 34% 0.02in /  0.5mm
14:34 63.3 °F /  17.4 °C 33.7 °F /  0.9 °C 30.03in /  1016.8hPa WNW 12.0mph /  19.3km/h 21.0mph /  33.8km/h 33% 0.02in /  0.5mm
14:39 63.7 °F /  17.6 °C 35.5 °F /  1.9 °C 30.04in /  1017.2hPa NW 7.0mph /  11.3km/h 21.0mph /  33.8km/h 35% 0.02in /  0.5mm
14:45 64.3 °F /  17.9 °C 34.6 °F /  1.4 °C 30.03in /  1016.8hPa WNW 8.0mph /  12.9km/h 18.0mph /  29km/h 33% 0.02in /  0.5mm
14:54 64.0 °F /  17.8 °C 34.3 °F /  1.3 °C 30.03in /  1016.8hPa West 7.0mph /  11.3km/h 25.0mph /  40.2km/h 33% 0.02in /  0.5mm
14:59 64.3 °F /  17.9 °C 33.8 °F /  1 °C 30.03in /  1016.8hPa WNW 13.0mph /  20.9km/h 22.0mph /  35.4km/h 32% 0.02in /  0.5mm
15:04 63.8 °F /  17.7 °C 33.4 °F /  0.8 °C 30.03in /  1016.8hPa WSW 10.0mph /  16.1km/h 22.0mph /  35.4km/h 32% 0.02in /  0.5mm
15:09 64.1 °F /  17.8 °C 33.7 °F /  0.9 °C 30.03in /  1016.8hPa WNW 12.0mph /  19.3km/h 22.0mph /  35.4km/h 32% 0.02in /  0.5mm
15:15 64.1 °F /  17.8 °C 33.7 °F /  0.9 °C 30.03in /  1016.8hPa WNW 14.0mph /  22.5km/h 23.0mph /  37km/h 32% 0.02in /  0.5mm
15:20 63.8 °F /  17.7 °C 34.2 °F /  1.2 °C 30.03in /  1016.8hPa WNW 12.0mph /  19.3km/h 23.0mph /  37km/h 33% 0.02in /  0.5mm
15:29 63.1 °F /  17.3 °C 35.0 °F /  1.7 °C 30.03in /  1016.8hPa WNW 10.0mph /  16.1km/h 20.0mph /  32.2km/h 35% 0.02in /  0.5mm
15:34 63.6 °F /  17.6 °C 34.7 °F /  1.5 °C 30.04in /  1017.2hPa WNW 11.0mph /  17.7km/h 17.0mph /  27.4km/h 34% 0.02in /  0.5mm
15:39 63.2 °F /  17.3 °C 35.1 °F /  1.7 °C 30.04in /  1017.2hPa WNW 10.0mph /  16.1km/h 17.0mph /  27.4km/h 35% 0.02in /  0.5mm
15:44 62.9 °F /  17.2 °C 34.1 °F /  1.2 °C 30.03in /  1016.8hPa NW 13.0mph /  20.9km/h 23.0mph /  37km/h 34% 0.02in /  0.5mm
15:50 62.7 °F /  17.1 °C 34.7 °F /  1.5 °C 30.03in /  1016.8hPa WNW 10.0mph /  16.1km/h 23.0mph /  37km/h 35% 0.02in /  0.5mm
15:55 63.1 °F /  17.3 °C 32.8 °F /  0.4 °C 30.04in /  1017.2hPa WNW 12.0mph /  19.3km/h 20.0mph /  32.2km/h 32% 0.02in /  0.5mm
16:04 63.0 °F /  17.2 °C 37.7 °F /  3.2 °C 30.03in /  1016.8hPa WNW 8.0mph /  12.9km/h 15.0mph /  24.1km/h 39% 0.02in /  0.5mm
16:09 62.8 °F /  17.1 °C 36.8 °F /  2.7 °C 30.03in /  1016.8hPa NW 8.0mph /  12.9km/h 14.0mph /  22.5km/h 38% 0.02in /  0.5mm
16:14 62.4 °F /  16.9 °C 35.8 °F /  2.1 °C 30.03in /  1016.8hPa NW 8.0mph /  12.9km/h 16.0mph /  25.7km/h 37% 0.02in /  0.5mm
16:19 62.3 °F /  16.8 °C 37.0 °F /  2.8 °C 30.04in /  1017.2hPa NNW 8.0mph /  12.9km/h 17.0mph /  27.4km/h 39% 0.02in /  0.5mm
16:24 62.5 °F /  16.9 °C 35.9 °F /  2.2 °C 30.04in /  1017.2hPa NW 5.0mph /  8km/h 17.0mph /  27.4km/h 37% 0.02in /  0.5mm
16:30 63.0 °F /  17.2 °C 37.0 °F /  2.8 °C 30.04in /  1017.2hPa NNW 6.0mph /  9.7km/h 14.0mph /  22.5km/h 38% 0.02in /  0.5mm
16:35 63.3 °F /  17.4 °C 35.9 °F /  2.2 °C 30.04in /  1017.2hPa NW 10.0mph /  16.1km/h 16.0mph /  25.7km/h 36% 0.02in /  0.5mm
16:44 61.7 °F /  16.5 °C 37.8 °F /  3.2 °C 30.04in /  1017.2hPa NNW 6.0mph /  9.7km/h 17.0mph /  27.4km/h 41% 0.02in /  0.5mm
16:49 61.8 °F /  16.6 °C 36.6 °F /  2.6 °C 30.03in /  1016.8hPa NW 7.0mph /  11.3km/h 17.0mph /  27.4km/h 39% 0.02in /  0.5mm
16:54 61.3 °F /  16.3 °C 35.5 °F /  1.9 °C 30.03in /  1016.8hPa NW 6.0mph /  9.7km/h 16.0mph /  25.7km/h 38% 0.02in /  0.5mm
17:00 61.3 °F /  16.3 °C 35.5 °F /  1.9 °C 30.04in /  1017.2hPa NW 10.0mph /  16.1km/h 17.0mph /  27.4km/h 38% 0.02in /  0.5mm
17:04 61.3 °F /  16.3 °C 34.1 °F /  1.2 °C 30.04in /  1017.2hPa NW 9.0mph /  14.5km/h 17.0mph /  27.4km/h 36% 0.02in /  0.5mm
17:09 61.3 °F /  16.3 °C 35.5 °F /  1.9 °C 30.05in /  1017.5hPa North 3.0mph /  4.8km/h 16.0mph /  25.7km/h 38% 0.02in /  0.5mm
17:14 61.4 °F /  16.3 °C 35.6 °F /  2 °C 30.06in /  1017.8hPa NW 5.0mph /  8km/h 11.0mph /  17.7km/h 38% 0.02in /  0.5mm
17:20 61.2 °F /  16.2 °C 36.1 °F /  2.3 °C 30.06in /  1017.8hPa NNW 3.0mph /  4.8km/h 13.0mph /  20.9km/h 39% 0.02in /  0.5mm
17:25 61.3 °F /  16.3 °C 34.8 °F /  1.6 °C 30.07in /  1018.2hPa NNW 3.0mph /  4.8km/h 13.0mph /  20.9km/h 37% 0.02in /  0.5mm
17:29 60.9 °F /  16.1 °C 33.1 °F /  0.6 °C 30.07in /  1018.2hPa WNW 5.0mph /  8km/h 11.0mph /  17.7km/h 35% 0.02in /  0.5mm
17:35 60.5 °F /  15.8 °C 29.7 °F /  -1.3 °C 30.07in /  1018.2hPa WNW 9.0mph /  14.5km/h 15.0mph /  24.1km/h 31% 0.02in /  0.5mm
17:45 59.0 °F /  15 °C 29.2 °F /  -1.6 °C 30.08in /  1018.5hPa West 8.0mph /  12.9km/h 18.0mph /  29km/h 32% 0.02in /  0.5mm
17:55 57.5 °F /  14.2 °C 28.6 °F /  -1.9 °C 30.07in /  1018.2hPa WNW 9.0mph /  14.5km/h 19.0mph /  30.6km/h 33% 0.02in /  0.5mm
18:04 57.1 °F /  13.9 °C 28.3 °F /  -2.1 °C 30.07in /  1018.2hPa WNW 11.0mph /  17.7km/h 23.0mph /  37km/h 33% 0.02in /  0.5mm
18:09 57.4 °F /  14.1 °C 29.3 °F /  -1.5 °C 30.07in /  1018.2hPa WNW 11.0mph /  17.7km/h 22.0mph /  35.4km/h 34% 0.02in /  0.5mm
18:14 56.8 °F /  13.8 °C 29.4 °F /  -1.4 °C 30.06in /  1017.8hPa West 10.0mph /  16.1km/h 19.0mph /  30.6km/h 35% 0.02in /  0.5mm
18:19 56.4 °F /  13.6 °C 29.1 °F /  -1.6 °C 30.07in /  1018.2hPa WNW 8.0mph /  12.9km/h 20.0mph /  32.2km/h 35% 0.02in /  0.5mm
18:25 56.1 °F /  13.4 °C 28.8 °F /  -1.8 °C 30.07in /  1018.2hPa West 8.0mph /  12.9km/h 20.0mph /  32.2km/h 35% 0.02in /  0.5mm
18:34 54.9 °F /  12.7 °C 30.4 °F /  -0.9 °C 30.09in /  1018.8hPa West 9.0mph /  14.5km/h 19.0mph /  30.6km/h 39% 0.02in /  0.5mm
18:39 55.1 °F /  12.8 °C 30.6 °F /  -0.8 °C 30.09in /  1018.8hPa West 8.0mph /  12.9km/h 16.0mph /  25.7km/h 39% 0.02in /  0.5mm
18:44 55.0 °F /  12.8 °C 29.9 °F /  -1.2 °C 30.09in /  1018.8hPa WNW 10.0mph /  16.1km/h 16.0mph /  25.7km/h 38% 0.02in /  0.5mm
18:50 54.8 °F /  12.7 °C 30.3 °F /  -0.9 °C 30.09in /  1018.8hPa West 9.0mph /  14.5km/h 16.0mph /  25.7km/h 39% 0.02in /  0.5mm
18:55 54.5 °F /  12.5 °C 30.1 °F /  -1.1 °C 30.08in /  1018.5hPa WNW 8.0mph /  12.9km/h 18.0mph /  29km/h 39% 0.02in /  0.5mm
18:59 54.3 °F /  12.4 °C 29.9 °F /  -1.2 °C 30.09in /  1018.8hPa WNW 5.0mph /  8km/h 18.0mph /  29km/h 39% 0.02in /  0.5mm
19:04 54.0 °F /  12.2 °C 29.6 °F /  -1.3 °C 30.09in /  1018.8hPa WNW 7.0mph /  11.3km/h 14.0mph /  22.5km/h 39% 0.02in /  0.5mm
19:10 53.8 °F /  12.1 °C 31.8 °F /  -0.1 °C 30.10in /  1019.2hPa NNW 1.0mph /  1.6km/h 14.0mph /  22.5km/h 43% 0.02in /  0.5mm
19:14 53.3 °F /  11.8 °C 32.5 °F /  0.3 °C 30.10in /  1019.2hPa NW 6.0mph /  9.7km/h 13.0mph /  20.9km/h 45% 0.02in /  0.5mm
19:20 52.3 °F /  11.3 °C 32.1 °F /  0.1 °C 30.10in /  1019.2hPa NW 3.0mph /  4.8km/h 13.0mph /  20.9km/h 46% 0.02in /  0.5mm
19:29 50.8 °F /  10.4 °C 31.8 °F /  -0.1 °C 30.10in /  1019.2hPa Calm   9.0mph /  14.5km/h 48% 0.02in /  0.5mm
19:34 50.3 °F /  10.2 °C 31.9 °F /  -0.1 °C 30.11in /  1019.5hPa NNW 1.0mph /  1.6km/h 8.0mph /  12.9km/h 49% 0.02in /  0.5mm
19:39 49.8 °F /  9.9 °C 31.4 °F /  -0.3 °C 30.12in /  1019.9hPa NNW 4.0mph /  6.4km/h 10.0mph /  16.1km/h 49% 0.02in /  0.5mm
19:44 49.6 °F /  9.8 °C 31.2 °F /  -0.4 °C 30.12in /  1019.9hPa NNW 1.0mph /  1.6km/h 10.0mph /  16.1km/h 49% 0.02in /  0.5mm
19:54 49.0 °F /  9.4 °C 31.2 °F /  -0.4 °C 30.11in /  1019.5hPa NW 2.0mph /  3.2km/h 11.0mph /  17.7km/h 50% 0.02in /  0.5mm
19:59 48.8 °F /  9.3 °C 31.0 °F /  -0.6 °C 30.11in /  1019.5hPa NW 2.0mph /  3.2km/h 11.0mph /  17.7km/h 50% 0.02in /  0.5mm
20:04 48.7 °F /  9.3 °C 30.9 °F /  -0.6 °C 30.12in /  1019.9hPa Calm   10.0mph /  16.1km/h 50% 0.02in /  0.5mm
20:09 48.3 °F /  9.1 °C 30.5 °F /  -0.8 °C 30.13in /  1020.2hPa NW 2.0mph /  3.2km/h 8.0mph /  12.9km/h 50% 0.02in /  0.5mm
20:14 48.3 °F /  9.1 °C 31.0 °F /  -0.6 °C 30.13in /  1020.2hPa NW 5.0mph /  8km/h 14.0mph /  22.5km/h 51% 0.02in /  0.5mm
20:19 48.2 °F /  9 °C 30.4 °F /  -0.9 °C 30.13in /  1020.2hPa Calm   14.0mph /  22.5km/h 50% 0.02in /  0.5mm
20:24 48.0 °F /  8.9 °C 30.7 °F /  -0.7 °C 30.14in /  1020.5hPa Calm   8.0mph /  12.9km/h 51% 0.02in /  0.5mm
20:29 47.7 °F /  8.7 °C 30.5 °F /  -0.8 °C 30.14in /  1020.5hPa WNW 4.0mph /  6.4km/h 8.0mph /  12.9km/h 51% 0.02in /  0.5mm
20:34 47.5 °F /  8.6 °C 30.3 °F /  -0.9 °C 30.15in /  1020.9hPa WNW 1.0mph /  1.6km/h 8.0mph /  12.9km/h 51% 0.02in /  0.5mm
20:39 47.3 °F /  8.5 °C 30.6 °F /  -0.8 °C 30.15in /  1020.9hPa WNW 3.0mph /  4.8km/h 8.0mph /  12.9km/h 52% 0.02in /  0.5mm
20:45 47.2 °F /  8.4 °C 30.5 °F /  -0.8 °C 30.16in /  1021.2hPa NNW 7.0mph /  11.3km/h 12.0mph /  19.3km/h 52% 0.02in /  0.5mm
20:55 46.4 °F /  8 °C 30.2 °F /  -1 °C 30.17in /  1021.6hPa NNW 6.0mph /  9.7km/h 11.0mph /  17.7km/h 53% 0.02in /  0.5mm
21:04 45.9 °F /  7.7 °C 30.2 °F /  -1 °C 30.18in /  1021.9hPa NW 7.0mph /  11.3km/h 14.0mph /  22.5km/h 54% 0.02in /  0.5mm
21:09 45.7 °F /  7.6 °C 30.0 °F /  -1.1 °C 30.18in /  1021.9hPa NNW 3.0mph /  4.8km/h 16.0mph /  25.7km/h 54% 0.02in /  0.5mm
21:14 45.3 °F /  7.4 °C 29.6 °F /  -1.3 °C 30.19in /  1022.2hPa NNW 6.0mph /  9.7km/h 16.0mph /  25.7km/h 54% 0.02in /  0.5mm
21:19 45.2 °F /  7.3 °C 30.0 °F /  -1.1 °C 30.19in /  1022.2hPa Calm   13.0mph /  20.9km/h 55% 0.02in /  0.5mm
21:24 45.1 °F /  7.3 °C 29.9 °F /  -1.2 °C 30.18in /  1021.9hPa NNE 1.0mph /  1.6km/h 8.0mph /  12.9km/h 55% 0.02in /  0.5mm
21:30 44.9 °F /  7.2 °C 29.3 °F /  -1.5 °C 30.19in /  1022.2hPa NNW 5.0mph /  8km/h 11.0mph /  17.7km/h 54% 0.02in /  0.5mm
21:35 44.6 °F /  7 °C 29.4 °F /  -1.4 °C 30.19in /  1022.2hPa North 1.0mph /  1.6km/h 11.0mph /  17.7km/h 55% 0.02in /  0.5mm
21:44 44.1 °F /  6.7 °C 29.0 °F /  -1.7 °C 30.19in /  1022.2hPa NW 1.0mph /  1.6km/h 7.0mph /  11.3km/h 55% 0.02in /  0.5mm
21:50 43.9 °F /  6.6 °C 28.8 °F /  -1.8 °C 30.19in /  1022.2hPa NW 3.0mph /  4.8km/h 10.0mph /  16.1km/h 55% 0.02in /  0.5mm
22:00 43.7 °F /  6.5 °C 28.1 °F /  -2.2 °C 30.19in /  1022.2hPa NNW 1.0mph /  1.6km/h 9.0mph /  14.5km/h 54% 0.02in /  0.5mm
22:04 43.6 °F /  6.4 °C 28.5 °F /  -1.9 °C 30.19in /  1022.2hPa North 3.0mph /  4.8km/h 8.0mph /  12.9km/h 55% 0.02in /  0.5mm
22:09 43.4 °F /  6.3 °C 28.3 °F /  -2.1 °C 30.19in /  1022.2hPa Calm   6.0mph /  9.7km/h 55% 0.02in /  0.5mm
22:14 43.3 °F /  6.3 °C 28.7 °F /  -1.8 °C 30.19in /  1022.2hPa North 1.0mph /  1.6km/h 6.0mph /  9.7km/h 56% 0.02in /  0.5mm
22:20 43.2 °F /  6.2 °C 28.6 °F /  -1.9 °C 30.20in /  1022.6hPa NNW 2.0mph /  3.2km/h 6.0mph /  9.7km/h 56% 0.02in /  0.5mm
22:25 43.2 °F /  6.2 °C 28.6 °F /  -1.9 °C 30.20in /  1022.6hPa NW 2.0mph /  3.2km/h 7.0mph /  11.3km/h 56% 0.02in /  0.5mm
22:35 43.0 °F /  6.1 °C 27.5 °F /  -2.5 °C 30.19in /  1022.2hPa North 4.0mph /  6.4km/h 9.0mph /  14.5km/h 54% 0.02in /  0.5mm
22:39 42.8 °F /  6 °C 26.9 °F /  -2.8 °C 30.20in /  1022.6hPa NW 2.0mph /  3.2km/h 9.0mph /  14.5km/h 53% 0.02in /  0.5mm
22:45 42.5 °F /  5.8 °C 27.0 °F /  -2.8 °C 30.20in /  1022.6hPa NW 4.0mph /  6.4km/h 14.0mph /  22.5km/h 54% 0.02in /  0.5mm
22:54 42.0 °F /  5.6 °C 26.1 °F /  -3.3 °C 30.20in /  1022.6hPa NW 7.0mph /  11.3km/h 13.0mph /  20.9km/h 53% 0.02in /  0.5mm
23:00 41.8 °F /  5.4 °C 25.9 °F /  -3.4 °C 30.20in /  1022.6hPa NNW 4.0mph /  6.4km/h 16.0mph /  25.7km/h 53% 0.02in /  0.5mm
23:10 41.6 °F /  5.3 °C 25.7 °F /  -3.5 °C 30.21in /  1022.9hPa Calm   13.0mph /  20.9km/h 53% 0.02in /  0.5mm
23:19 41.1 °F /  5.1 °C 25.3 °F /  -3.7 °C 30.20in /  1022.6hPa NNW 2.0mph /  3.2km/h 10.0mph /  16.1km/h 53% 0.02in /  0.5mm
23:24 40.8 °F /  4.9 °C 25.4 °F /  -3.7 °C 30.20in /  1022.6hPa Calm   10.0mph /  16.1km/h 54% 0.02in /  0.5mm
23:29 40.6 °F /  4.8 °C 25.3 °F /  -3.7 °C 30.21in /  1022.9hPa NW 2.0mph /  3.2km/h 8.0mph /  12.9km/h 54% 0.02in /  0.5mm
23:34 40.5 °F /  4.7 °C 25.6 °F /  -3.6 °C 30.21in /  1022.9hPa NW 2.0mph /  3.2km/h 8.0mph /  12.9km/h 55% 0.02in /  0.5mm
23:39 40.5 °F /  4.7 °C 25.6 °F /  -3.6 °C 30.20in /  1022.6hPa North 2.0mph /  3.2km/h 8.0mph /  12.9km/h 55% 0.02in /  0.5mm
23:45 40.5 °F /  4.7 °C 25.6 °F /  -3.6 °C 30.20in /  1022.6hPa NNW 1.0mph /  1.6km/h 10.0mph /  16.1km/h 55% 0.02in /  0.5mm
23:50 40.6 °F /  4.8 °C 24.8 °F /  -4 °C 30.21in /  1022.9hPa NNW 2.0mph /  3.2km/h 10.0mph /  16.1km/h 53% 0.02in /  0.5mm
23:55 40.6 °F /  4.8 °C 24.8 °F /  -4 °C 30.21in /  1022.9hPa WNW 1.0mph /  1.6km/h 11.0mph /  17.7km/h 53% 0.02in /  0.5mm
Westford Weather
Compliments of Weather Underground

 
 
Current Radar Loop:

Copyright © WestfordWeather.net 2007-2014. All rights reserved.